Terminal Aerodrome Forecast
Issued by NWS

Home | Current Version | Previous Version | Text Only | Print | Product List | Glossary On
Versions: 1 2 3 4 5 6 7 8 9 10 11 12 13 14 15
000
FTUS45 KREV 232332
TAFMMH
TAF
KMMH 232332Z 2400/2424 28016G26KT P6SM FEW120 SCT200
     FM240500 25010G16KT P6SM FEW100 BKN200
     FM241600 25018G32KT P6SM BKN100 OVC180
     FM242100 27020G32KT P6SM VCSH BKN080 OVC120=

USA.gov is the U.S. government's official web portal to all federal, state and local government web resources and services.